createdAt,value
2022-08-30T00:01:14.432Z,96727.75
2022-08-30T00:03:45.156Z,96729.38
2022-08-30T00:06:14.009Z,96729.63
2022-08-30T00:08:41.144Z,96723.78
2022-08-30T00:11:10.466Z,96731.25
2022-08-30T00:13:37.121Z,96729.31
2022-08-30T00:16:04.109Z,96726.06
2022-08-30T00:18:30.111Z,96726.06
2022-08-30T00:20:56.299Z,96728.22
2022-08-30T00:23:22.211Z,96722.59
2022-08-30T00:25:47.989Z,96728.94
2022-08-30T00:28:14.699Z,96729.22
2022-08-30T00:30:41.155Z,96724.09
2022-08-30T00:33:07.121Z,96730.34
2022-08-30T00:35:33.975Z,96732.53
2022-08-30T00:38:00.026Z,96729.56
2022-08-30T00:40:27.835Z,96726.13
2022-08-30T00:42:59.325Z,96719.50
2022-08-30T00:45:39.992Z,96721.56
2022-08-30T00:48:06.470Z,96719.19
2022-08-30T00:50:37.382Z,96722.66
2022-08-30T00:53:06.361Z,96720.78
2022-08-30T00:55:32.552Z,96723.59
2022-08-30T00:58:05.114Z,96712.25
2022-08-30T01:00:31.510Z,96713.59
2022-08-30T01:02:57.802Z,96716.00
2022-08-30T01:05:23.847Z,96717.56
2022-08-30T01:07:49.921Z,96724.25
2022-08-30T01:10:16.680Z,96727.19
2022-08-30T01:12:44.288Z,96722.81
2022-08-30T01:15:13.798Z,96723.56
2022-08-30T01:17:43.800Z,96723.59
2022-08-30T01:20:52.298Z,96730.34
2022-08-30T01:23:21.199Z,96721.81
2022-08-30T01:25:49.777Z,96727.94
2022-08-30T01:28:26.842Z,96730.50
2022-08-30T01:30:53.036Z,96723.94
2022-08-30T01:33:21.266Z,96715.03
2022-08-30T01:35:49.217Z,96724.59
2022-08-30T01:38:17.252Z,96725.66
2022-08-30T01:40:43.349Z,96725.00
2022-08-30T01:43:12.151Z,96727.25
2022-08-30T01:45:38.104Z,96722.81
2022-08-30T01:48:06.614Z,96733.44
2022-08-30T01:50:32.792Z,96727.59
2022-08-30T01:52:58.703Z,96728.44
2022-08-30T01:55:24.665Z,96723.22
2022-08-30T01:57:50.537Z,96728.88
2022-08-30T02:00:17.481Z,96722.25
2022-08-30T02:02:43.588Z,96727.66
2022-08-30T02:05:10.857Z,96726.69
2022-08-30T02:07:36.661Z,96723.75
2022-08-30T02:10:03.891Z,96728.84
2022-08-30T02:12:29.837Z,96724.25
2022-08-30T02:14:56.118Z,96727.47
2022-08-30T02:17:22.313Z,96727.47
2022-08-30T02:19:48.196Z,96724.38
2022-08-30T02:22:14.187Z,96722.66
2022-08-30T02:24:40.044Z,96722.34
2022-08-30T02:27:06.123Z,96723.19
2022-08-30T02:29:32.138Z,96717.88
2022-08-30T02:31:58.502Z,96716.44
2022-08-30T02:34:24.493Z,96717.81
2022-08-30T02:36:50.440Z,96728.19
2022-08-30T02:39:16.652Z,96724.03
2022-08-30T02:41:42.737Z,96717.34
2022-08-30T02:44:10.058Z,96725.38
2022-08-30T02:46:36.447Z,96719.28
2022-08-30T02:49:23.723Z,96714.19
2022-08-30T02:51:48.933Z,96711.44
2022-08-30T02:54:19.097Z,96706.06
2022-08-30T02:56:47.231Z,96700.78
2022-08-30T02:59:14.085Z,96703.47
2022-08-30T03:01:40.044Z,96707.22
2022-08-30T03:04:06.349Z,96710.69
2022-08-30T03:06:32.946Z,96710.84
2022-08-30T03:08:59.158Z,96706.72
2022-08-30T03:11:25.099Z,96710.47
2022-08-30T03:13:50.953Z,96706.34
2022-08-30T03:16:17.435Z,96701.81
2022-08-30T03:18:43.492Z,96702.09
2022-08-30T03:21:14.196Z,96699.56
2022-08-30T03:23:40.579Z,96694.78
2022-08-30T03:26:07.497Z,96696.63
2022-08-30T03:28:33.749Z,96693.34
2022-08-30T03:31:00.091Z,96699.22
2022-08-30T03:33:26.596Z,96699.50
2022-08-30T03:35:53.417Z,96703.53
2022-08-30T03:38:19.290Z,96702.22
2022-08-30T03:40:45.220Z,96706.78
2022-08-30T03:43:11.131Z,96705.97
2022-08-30T03:45:37.121Z,96706.78
2022-08-30T03:48:03.381Z,96710.00
2022-08-30T03:50:29.774Z,96706.25
2022-08-30T03:52:56.455Z,96700.00
2022-08-30T03:55:22.363Z,96700.00
2022-08-30T03:57:48.222Z,96700.50
2022-08-30T04:00:16.260Z,96702.88
2022-08-30T04:02:42.384Z,96700.00
2022-08-30T04:05:10.261Z,96707.66
2022-08-30T04:07:36.882Z,96698.63
2022-08-30T04:10:04.518Z,96705.59
2022-08-30T04:12:30.426Z,96712.59
2022-08-30T04:14:56.292Z,96709.03
2022-08-30T04:17:22.265Z,96703.69
2022-08-30T04:19:48.117Z,96708.78
2022-08-30T04:22:14.072Z,96709.59
2022-08-30T04:24:40.983Z,96701.56
2022-08-30T04:27:08.056Z,96705.53
2022-08-30T04:29:34.436Z,96710.50
2022-08-30T04:32:00.953Z,96716.38
2022-08-30T04:34:27.007Z,96711.91
2022-08-30T04:36:52.826Z,96713.00
2022-08-30T04:39:19.231Z,96706.59
2022-08-30T04:41:46.000Z,96710.59
2022-08-30T04:44:14.242Z,96713.28
2022-08-30T04:46:45.453Z,96716.75
2022-08-30T04:49:11.898Z,96716.75
2022-08-30T04:51:37.842Z,96716.44
2022-08-30T04:54:03.865Z,96721.13
2022-08-30T04:56:29.797Z,96721.97
2022-08-30T04:58:56.426Z,96714.53
2022-08-30T05:01:27.583Z,96707.63
2022-08-30T05:03:56.354Z,96717.41
2022-08-30T05:06:23.428Z,96729.84
2022-08-30T05:08:49.487Z,96732.00
2022-08-30T05:11:16.901Z,96731.44
2022-08-30T05:13:43.867Z,96733.72
2022-08-30T05:16:12.608Z,96734.38
2022-08-30T05:18:38.541Z,96736.75
2022-08-30T05:21:10.670Z,96740.22
2022-08-30T05:23:38.607Z,96732.91
2022-08-30T05:26:18.996Z,96735.09
2022-08-30T05:28:45.682Z,96744.72
2022-08-30T05:31:24.087Z,96742.84
2022-08-30T05:33:51.401Z,96749.78
2022-08-30T05:36:18.982Z,96753.38
2022-08-30T05:38:45.582Z,96763.47
2022-08-30T05:41:12.107Z,96757.44
2022-08-30T05:43:39.132Z,96760.59
2022-08-30T05:46:08.448Z,96756.00
2022-08-30T05:48:34.672Z,96750.44
2022-08-30T05:51:03.235Z,96753.41
2022-08-30T05:53:29.303Z,96760.94
2022-08-30T05:55:55.256Z,96751.69
2022-08-30T05:58:21.302Z,96748.50
2022-08-30T06:00:47.316Z,96748.28
2022-08-30T06:03:13.187Z,96753.84
2022-08-30T06:05:39.142Z,96755.84
2022-08-30T06:08:05.115Z,96754.25
2022-08-30T06:10:31.042Z,96762.78
2022-08-30T06:12:56.927Z,96754.34
2022-08-30T06:15:22.778Z,96752.72
2022-08-30T06:17:48.696Z,96751.41
2022-08-30T06:20:18.021Z,96754.13
2022-08-30T06:22:43.916Z,96754.97
2022-08-30T06:25:10.460Z,96752.59
2022-08-30T06:27:36.375Z,96765.66
2022-08-30T06:30:03.710Z,96763.56
2022-08-30T06:32:29.584Z,96756.13
2022-08-30T06:34:55.508Z,96763.59
2022-08-30T06:37:29.432Z,96763.34
2022-08-30T06:39:57.811Z,96761.47
2022-08-30T06:42:29.779Z,96752.97
2022-08-30T06:44:55.830Z,96758.84
2022-08-30T06:47:21.636Z,96760.97
2022-08-30T06:49:47.580Z,96755.16
2022-08-30T06:52:13.715Z,96755.97
2022-08-30T06:54:39.736Z,96764.19
2022-08-30T06:57:05.649Z,96763.97
2022-08-30T06:59:32.507Z,96758.34
2022-08-30T07:01:58.449Z,96761.84
2022-08-30T07:04:25.136Z,96758.13
2022-08-30T07:06:51.203Z,96747.72
2022-08-30T07:09:18.417Z,96753.56
2022-08-30T07:11:44.452Z,96761.56
2022-08-30T07:14:10.336Z,96758.09
2022-08-30T07:16:36.268Z,96763.44
2022-08-30T07:19:03.687Z,96759.97
2022-08-30T07:21:38.634Z,96762.09
2022-08-30T07:24:08.782Z,96767.16
2022-08-30T07:26:48.929Z,96767.94
2022-08-30T07:29:16.529Z,96764.72
2022-08-30T07:31:43.186Z,96764.19
2022-08-30T07:34:09.217Z,96766.31
2022-08-30T07:36:37.331Z,96765.53
2022-08-30T07:39:04.942Z,96767.41
2022-08-30T07:41:34.874Z,96762.06
2022-08-30T07:44:01.691Z,96763.09
2022-08-30T07:46:27.662Z,96772.44
2022-08-30T07:48:55.185Z,96763.09
2022-08-30T07:51:23.975Z,96764.38
2022-08-30T07:53:50.118Z,96780.66
2022-08-30T07:56:16.217Z,96767.84
2022-08-30T07:58:42.320Z,96771.56
2022-08-30T08:01:10.427Z,96773.88
2022-08-30T08:03:38.275Z,96771.13
2022-08-30T08:06:05.853Z,96775.09
2022-08-30T08:08:32.325Z,96771.13
2022-08-30T08:10:58.194Z,96775.88
2022-08-30T08:13:24.237Z,96777.16
2022-08-30T08:15:54.620Z,96780.19
2022-08-30T08:18:20.487Z,96775.78
2022-08-30T08:20:46.392Z,96788.03
2022-08-30T08:23:12.330Z,96775.75
2022-08-30T08:25:40.930Z,96785.75
2022-08-30T08:28:07.026Z,96783.28
2022-08-30T08:30:35.336Z,96782.09
2022-08-30T08:33:01.427Z,96781.75
2022-08-30T08:35:27.360Z,96779.00
2022-08-30T08:37:53.282Z,96779.81
2022-08-30T08:40:19.660Z,96781.94
2022-08-30T08:42:55.660Z,96785.16
2022-08-30T08:46:00.193Z,96774.50
2022-08-30T08:48:45.671Z,96784.69
2022-08-30T08:51:38.306Z,96784.34
2022-08-30T08:54:11.112Z,96781.78
2022-08-30T08:56:37.966Z,96780.28
2022-08-30T08:59:07.455Z,96783.66
2022-08-30T09:01:34.327Z,96780.75
2022-08-30T09:04:09.630Z,96785.84
2022-08-30T09:06:54.274Z,96792.13
2022-08-30T09:09:27.005Z,96795.97
2022-08-30T09:11:52.995Z,96788.84
2022-08-30T09:14:22.925Z,96792.84
2022-08-30T09:16:57.182Z,96799.25
2022-08-30T09:19:43.390Z,96783.41
2022-08-30T09:22:21.725Z,96784.53
2022-08-30T09:24:52.495Z,96781.00
2022-08-30T09:27:27.649Z,96783.19
2022-08-30T09:29:57.966Z,96786.19
2022-08-30T09:32:30.378Z,96779.97
2022-08-30T09:34:57.341Z,96787.16
2022-08-30T09:37:32.205Z,96789.53
2022-08-30T09:39:59.453Z,96787.38
2022-08-30T09:42:29.292Z,96783.53
2022-08-30T09:45:11.632Z,96781.84
2022-08-30T09:47:41.548Z,96777.09
2022-08-30T09:50:07.689Z,96774.13
2022-08-30T09:52:45.133Z,96769.56
2022-08-30T09:55:31.806Z,96774.59
2022-08-30T09:58:29.794Z,96770.34
2022-08-30T10:01:19.586Z,96771.66
2022-08-30T10:04:05.057Z,96765.28
2022-08-30T10:06:49.248Z,96770.84
2022-08-30T10:09:26.944Z,96763.38
2022-08-30T10:11:52.782Z,96767.59
2022-08-30T10:14:36.086Z,96768.19
2022-08-30T10:17:12.999Z,96754.97
2022-08-30T10:19:57.743Z,96757.16
2022-08-30T10:22:30.977Z,96760.84
2022-08-30T10:25:16.065Z,96755.84
2022-08-30T10:28:03.649Z,96758.13
2022-08-30T10:30:32.519Z,96762.78
2022-08-30T10:33:09.518Z,96758.66
2022-08-30T10:35:45.216Z,96763.13
2022-08-30T10:38:20.784Z,96757.78
2022-08-30T10:41:13.550Z,96753.66
2022-08-30T10:43:39.333Z,96754.63
2022-08-30T10:46:13.659Z,96758.59
2022-08-30T10:48:44.558Z,96757.88
2022-08-30T10:51:29.476Z,96760.84
2022-08-30T10:54:23.219Z,96767.59
2022-08-30T10:56:51.074Z,96764.19
2022-08-30T10:59:18.506Z,96763.72
2022-08-30T11:02:03.054Z,96763.75
2022-08-30T11:05:14.390Z,96761.84
2022-08-30T11:08:37.867Z,96761.75
2022-08-30T11:11:25.369Z,96761.94
2022-08-30T11:13:56.863Z,96757.47
2022-08-30T11:16:36.571Z,96763.78
2022-08-30T11:19:11.494Z,96761.13
2022-08-30T11:21:41.405Z,96757.53
2022-08-30T11:24:14.292Z,96760.53
2022-08-30T11:26:46.250Z,96758.22
2022-08-30T11:29:32.023Z,96761.03
2022-08-30T11:32:11.708Z,96750.16
2022-08-30T11:34:46.584Z,96751.38
2022-08-30T11:37:41.809Z,96750.81
2022-08-30T11:40:19.996Z,96757.84
2022-08-30T11:42:49.269Z,96759.78
2022-08-30T11:45:21.451Z,96754.81
2022-08-30T11:47:50.659Z,96747.28
2022-08-30T11:50:26.304Z,96752.91
2022-08-30T11:53:13.226Z,96744.22
2022-08-30T11:55:48.228Z,96743.91
2022-08-30T11:58:35.649Z,96743.00
2022-08-30T12:01:51.234Z,96743.88
2022-08-30T12:04:17.271Z,96740.97
2022-08-30T12:06:46.013Z,96743.81
2022-08-30T12:09:12.040Z,96745.41
2022-08-30T12:11:37.862Z,96736.50
2022-08-30T12:14:09.094Z,96731.50
2022-08-30T12:17:02.910Z,96740.44
2022-08-30T12:19:31.461Z,96733.31
2022-08-30T12:22:05.328Z,96736.88
2022-08-30T12:24:35.911Z,96730.91
2022-08-30T12:27:32.748Z,96730.34
2022-08-30T12:30:06.055Z,96730.63
2022-08-30T12:32:32.849Z,96728.44
2022-08-30T12:35:02.409Z,96721.75
2022-08-30T12:37:32.829Z,96721.94
2022-08-30T12:40:10.605Z,96725.59
2022-08-30T12:42:48.794Z,96724.63
2022-08-30T12:45:17.889Z,96719.06
2022-08-30T12:47:53.955Z,96723.06
2022-08-30T12:50:24.548Z,96713.94
2022-08-30T12:53:00.863Z,96717.69
2022-08-30T12:55:35.913Z,96714.53
2022-08-30T12:58:08.746Z,96713.28
2022-08-30T13:00:38.960Z,96721.66
2022-08-30T13:03:30.353Z,96716.72
2022-08-30T13:05:56.788Z,96710.47
2022-08-30T13:08:25.510Z,96710.00
2022-08-30T13:10:59.104Z,96714.38
2022-08-30T13:13:40.687Z,96709.88
2022-08-30T13:16:26.562Z,96711.78
2022-08-30T13:19:25.913Z,96708.34
2022-08-30T13:21:54.408Z,96712.88
2022-08-30T13:24:25.190Z,96698.94
2022-08-30T13:26:54.849Z,96707.84
2022-08-30T13:29:25.761Z,96699.91
2022-08-30T13:31:51.928Z,96700.38
2022-08-30T13:34:21.607Z,96691.72
2022-08-30T13:36:56.291Z,96694.53
2022-08-30T13:39:22.669Z,96701.03
2022-08-30T13:41:49.713Z,96702.97
2022-08-30T13:44:17.470Z,96704.38
2022-08-30T13:46:53.357Z,96704.94
2022-08-30T13:49:46.091Z,96704.03
2022-08-30T13:52:22.406Z,96707.88
2022-08-30T13:54:54.327Z,96701.75
2022-08-30T14:00:16.674Z,96703.56
2022-08-30T14:02:47.591Z,96695.22
2022-08-30T14:05:46.967Z,96689.47
2022-08-30T14:08:03.599Z,96694.16
2022-08-30T14:10:32.476Z,96686.38
2022-08-30T14:13:07.960Z,96686.81
2022-08-30T14:15:39.091Z,96689.25
2022-08-30T14:18:06.237Z,96699.75
2022-08-30T14:20:34.620Z,96690.25
2022-08-30T14:23:00.844Z,96681.41
2022-08-30T14:25:28.017Z,96684.06
2022-08-30T14:27:55.230Z,96677.16
2022-08-30T14:30:24.802Z,96677.94
2022-08-30T14:32:51.681Z,96684.81
2022-08-30T14:35:19.764Z,96683.03
2022-08-30T14:37:47.214Z,96683.50
2022-08-30T14:40:13.786Z,96691.16
2022-08-30T14:42:39.775Z,96693.25
2022-08-30T14:45:06.560Z,96683.63
2022-08-30T14:47:32.521Z,96680.38
2022-08-30T14:50:00.210Z,96685.81
2022-08-30T14:52:30.671Z,96679.94
2022-08-30T14:55:05.190Z,96674.00
2022-08-30T14:57:35.769Z,96680.94
2022-08-30T15:00:06.360Z,96682.72
2022-08-30T15:02:32.193Z,96674.84
2022-08-30T15:04:58.066Z,96682.75
2022-08-30T15:07:24.001Z,96678.31
2022-08-30T15:09:49.968Z,96670.56
2022-08-30T15:12:15.915Z,96664.44
2022-08-30T15:14:41.845Z,96655.31
2022-08-30T15:17:07.783Z,96660.03
2022-08-30T15:19:34.817Z,96661.78
2022-08-30T15:22:03.729Z,96656.19
2022-08-30T15:24:30.760Z,96663.44
2022-08-30T15:26:59.563Z,96661.88
2022-08-30T15:29:25.942Z,96661.59
2022-08-30T15:31:52.264Z,96655.97
2022-08-30T15:34:21.492Z,96656.88
2022-08-30T15:36:53.941Z,96648.47
2022-08-30T15:39:19.873Z,96652.63
2022-08-30T15:41:54.611Z,96648.81
2022-08-30T15:44:23.288Z,96649.06
2022-08-30T15:46:49.342Z,96648.16
2022-08-30T15:49:19.490Z,96641.28
2022-08-30T15:54:16.374Z,96641.00
2022-08-30T15:56:42.989Z,96637.00
2022-08-30T15:59:09.413Z,96634.78
2022-08-30T16:01:35.798Z,96634.78
2022-08-30T16:04:03.026Z,96629.22
2022-08-30T16:06:34.117Z,96632.03
2022-08-30T16:09:00.546Z,96628.41
2022-08-30T16:11:26.994Z,96633.84
2022-08-30T16:13:54.677Z,96624.97
2022-08-30T16:16:22.315Z,96616.88
2022-08-30T16:18:53.869Z,96614.81
2022-08-30T16:21:29.434Z,96614.50
2022-08-30T16:23:56.484Z,96612.91
2022-08-30T16:26:23.663Z,96617.19
2022-08-30T16:28:51.059Z,96609.75
2022-08-30T16:31:17.901Z,96611.22
2022-08-30T16:33:45.046Z,96614.03
2022-08-30T16:36:11.528Z,96614.72
2022-08-30T16:38:38.648Z,96616.47
2022-08-30T16:41:08.353Z,96619.38
2022-08-30T16:43:35.599Z,96612.78
2022-08-30T16:46:05.823Z,96609.00
2022-08-30T16:48:33.018Z,96600.41
2022-08-30T16:50:59.309Z,96602.72
2022-08-30T16:53:26.771Z,96608.09
2022-08-30T16:55:53.593Z,96613.81
2022-08-30T16:58:20.094Z,96606.38
2022-08-30T17:00:49.949Z,96612.72
2022-08-30T17:03:17.302Z,96608.81
2022-08-30T17:05:44.013Z,96618.88
2022-08-30T17:08:10.979Z,96617.00
2022-08-30T17:10:40.419Z,96611.75
2022-08-30T17:13:07.039Z,96619.56
2022-08-30T17:15:33.252Z,96612.94
2022-08-30T17:17:59.355Z,96610.47
2022-08-30T17:20:30.396Z,96613.63
2022-08-30T17:22:59.784Z,96617.34
2022-08-30T17:25:32.024Z,96621.75
2022-08-30T17:27:59.879Z,96617.78
2022-08-30T17:30:25.831Z,96610.66
2022-08-30T17:32:52.907Z,96626.44
2022-08-30T17:35:22.563Z,96624.28
2022-08-30T17:37:49.233Z,96624.44
2022-08-30T17:40:17.863Z,96634.47
2022-08-30T17:42:47.394Z,96627.63
2022-08-30T17:45:15.408Z,96636.19
2022-08-30T17:47:42.308Z,96637.09
2022-08-30T17:50:09.421Z,96635.41
2022-08-30T17:52:35.723Z,96645.56
2022-08-30T17:55:01.683Z,96644.44
2022-08-30T17:57:27.967Z,96647.41
2022-08-30T17:59:56.635Z,96643.59
2022-08-30T18:02:29.859Z,96656.34
2022-08-30T18:04:57.506Z,96660.78
2022-08-30T18:07:23.718Z,96660.91
2022-08-30T18:09:50.092Z,96661.38
2022-08-30T18:12:16.407Z,96672.59
2022-08-30T18:14:42.360Z,96667.97
2022-08-30T18:17:08.348Z,96674.19
2022-08-30T18:19:35.091Z,96676.31
2022-08-30T18:22:03.214Z,96672.66
2022-08-30T18:24:47.200Z,96670.22
2022-08-30T18:27:13.488Z,96669.88
2022-08-30T18:29:39.901Z,96674.50
2022-08-30T18:32:05.782Z,96672.13
2022-08-30T18:34:35.208Z,96675.00
2022-08-30T18:37:01.327Z,96677.09
2022-08-30T18:39:28.955Z,96681.31
2022-08-30T18:42:03.536Z,96686.16
2022-08-30T18:44:33.284Z,96681.84
2022-08-30T18:47:01.355Z,96687.03
2022-08-30T18:49:29.209Z,96678.59
2022-08-30T18:51:59.030Z,96685.19
2022-08-30T18:54:24.949Z,96689.06
2022-08-30T18:56:50.830Z,96688.72
2022-08-30T18:59:18.342Z,96684.00
2022-08-30T19:01:45.886Z,96690.88
2022-08-30T19:04:29.675Z,96697.19
2022-08-30T19:07:01.013Z,96691.63
2022-08-30T19:09:27.063Z,96689.88
2022-08-30T19:11:53.652Z,96688.53
2022-08-30T19:14:19.575Z,96695.28
2022-08-30T19:16:47.233Z,96693.34
2022-08-30T19:19:13.212Z,96689.47
2022-08-30T19:21:39.464Z,96695.09
2022-08-30T19:24:05.525Z,96698.22
2022-08-30T19:26:34.323Z,96699.66
2022-08-30T19:29:00.399Z,96696.47
2022-08-30T19:31:28.208Z,96697.47
2022-08-30T19:33:55.857Z,96698.88
2022-08-30T19:36:22.193Z,96696.03
2022-08-30T19:38:50.259Z,96706.19
2022-08-30T19:41:16.244Z,96697.91
2022-08-30T19:43:42.590Z,96694.53
2022-08-30T19:46:08.652Z,96704.25
2022-08-30T19:48:42.356Z,96696.84
2022-08-30T19:51:13.766Z,96696.31
2022-08-30T19:53:41.217Z,96701.69
2022-08-30T19:56:07.371Z,96699.97
2022-08-30T19:58:33.476Z,96702.78
2022-08-30T20:01:10.927Z,96698.84
2022-08-30T20:03:39.927Z,96696.94
2022-08-30T20:06:06.775Z,96697.50
2022-08-30T20:08:32.674Z,96700.75
2022-08-30T20:10:58.705Z,96705.31
2022-08-30T20:13:24.834Z,96701.22
2022-08-30T20:15:55.759Z,96694.34
2022-08-30T20:18:24.848Z,96699.13
2022-08-30T20:20:51.713Z,96693.81
2022-08-30T20:23:19.800Z,96702.59
2022-08-30T20:25:54.759Z,96697.50
2022-08-30T20:28:21.044Z,96691.63
2022-08-30T20:30:48.202Z,96701.50
2022-08-30T20:33:14.590Z,96687.63
2022-08-30T20:35:46.869Z,96695.97
2022-08-30T20:38:20.454Z,96690.44
2022-08-30T20:40:49.671Z,96686.09
2022-08-30T20:43:20.387Z,96696.22
2022-08-30T20:45:47.138Z,96692.81
2022-08-30T20:48:14.178Z,96687.53
2022-08-30T20:50:40.645Z,96689.56
2022-08-30T20:53:07.497Z,96690.13
2022-08-30T20:55:33.463Z,96688.63
2022-08-30T20:57:59.552Z,96691.81
2022-08-30T21:00:26.690Z,96697.66
2022-08-30T21:02:53.160Z,96688.34
2022-08-30T21:05:19.211Z,96690.53
2022-08-30T21:07:46.034Z,96694.66
2022-08-30T21:10:12.966Z,96689.84
2022-08-30T21:12:38.945Z,96698.53
2022-08-30T21:15:20.974Z,96695.56
2022-08-30T21:17:53.608Z,96694.22
2022-08-30T21:20:19.563Z,96697.53
2022-08-30T21:22:45.475Z,96697.78
2022-08-30T21:25:11.402Z,96695.41
2022-08-30T21:27:37.394Z,96698.06
2022-08-30T21:30:04.306Z,96700.22
2022-08-30T21:32:30.335Z,96704.28
2022-08-30T21:35:14.523Z,96701.91
2022-08-30T21:37:40.383Z,96698.16
2022-08-30T21:40:06.876Z,96700.03
2022-08-30T21:42:34.629Z,96701.34
2022-08-30T21:45:00.794Z,96701.94
2022-08-30T21:47:27.429Z,96700.13
2022-08-30T21:49:53.268Z,96706.53
2022-08-30T21:52:19.165Z,96705.47
2022-08-30T21:54:45.318Z,96702.81
2022-08-30T21:57:11.218Z,96702.81
2022-08-30T21:59:37.094Z,96704.13
2022-08-30T22:02:03.469Z,96699.59
2022-08-30T22:04:29.479Z,96712.13
2022-08-30T22:06:55.671Z,96707.34
2022-08-30T22:09:23.405Z,96708.69
2022-08-30T22:11:50.378Z,96706.59
2022-08-30T22:14:18.612Z,96709.78
2022-08-30T22:16:45.401Z,96707.88
2022-08-30T22:19:11.835Z,96707.63
2022-08-30T22:21:38.053Z,96694.56
2022-08-30T22:24:08.033Z,96703.94
2022-08-30T22:26:34.933Z,96706.31
2022-08-30T22:29:01.836Z,96699.63
2022-08-30T22:31:27.903Z,96701.47
2022-08-30T22:33:54.924Z,96708.69
2022-08-30T22:36:32.661Z,96714.88
2022-08-30T22:39:01.263Z,96709.78
2022-08-30T22:41:31.372Z,96706.81
2022-08-30T22:43:57.668Z,96705.53
2022-08-30T22:46:29.624Z,96708.25
2022-08-30T22:49:02.865Z,96701.56
2022-08-30T22:51:28.830Z,96702.38
2022-08-30T22:53:55.130Z,96711.16
2022-08-30T22:56:24.319Z,96711.72
2022-08-30T22:58:50.968Z,96704.75
2022-08-30T23:01:26.249Z,96710.38
2022-08-30T23:03:52.140Z,96707.66
2022-08-30T23:06:18.170Z,96701.53
2022-08-30T23:08:45.164Z,96709.81
2022-08-30T23:11:11.642Z,96702.84
2022-08-30T23:13:38.062Z,96701.56
2022-08-30T23:16:06.997Z,96704.50
2022-08-30T23:18:38.005Z,96696.78
2022-08-30T23:21:16.482Z,96704.22
2022-08-30T23:24:01.531Z,96695.19
2022-08-30T23:26:45.854Z,96705.03
2022-08-30T23:29:31.489Z,96694.09
2022-08-30T23:32:16.783Z,96697.31
2022-08-30T23:35:01.622Z,96699.72
2022-08-30T23:37:45.993Z,96706.91
2022-08-30T23:40:33.447Z,96702.91
2022-08-30T23:43:17.991Z,96702.91
2022-08-30T23:46:02.714Z,96700.53
2022-08-30T23:48:50.869Z,96695.72
2022-08-30T23:51:37.094Z,96685.88
2022-08-30T23:54:22.892Z,96700.78
2022-08-30T23:57:07.289Z,96694.13
2022-08-30T23:59:52.075Z,96689.59
